Terminal Aerodrome Forecast
Issued by NWS Shreveport, LA

Home | Current Version | Previous Version | Text Only | Print | Product List | Glossary On
Versions: 1 2 3 4 5 6 7 8 9 10 11 12 13 14 15 16 17 18 19
194
FTUS44 KSHV 300816 AAA
TAFGGG
TAF AMD
KGGG 300816Z 3008/0106 14008KT P6SM VCTS FEW015 BKN040CB OVC100
      TEMPO 3008/3012 4SM -TSRA BR FEW015 OVC035CB
     FM301200 19008KT P6SM VCTS OVC025CB
     FM301700 22008KT P6SM SCT025 BKN250
     FM010000 35003KT P6SM SCT250=

USA.gov is the U.S. government's official web portal to all federal, state and local government web resources and services.